M I D A S
Marine Information and Data Acquisition System
Tripno 673 of the Zeeleeuw from 2004-03-22 09:02:38 to 2004-03-22 14:32:03
Back to CruiseResearch ActivitiesStationsMapUnderway DataData graphs

EquipmentUnitsComments
TimeDGPSUTC
LatitudeDGPSDM.mWGS84
LongitudeDGPSDM.mWGS84
SpeedMeteo Stationm/sRelative wind speed
DirectionMeteo StationdegRelative wind direction
TemperatureMeteo Stationdeg CelciusAir temperature
PressureMeteo StationPaAtmospheric pressure
HumidityMeteo Station%Relative humidity
Missing or incorrect values are displayed as -999
Metereological data collected by the RV Zeeleeuw from 2004-03-22 09:02:38 to 2004-03-22 14:32:03
                                                                                    Next 1000 lines
Time Latitude Longitude Speed Direction Temperature Pressure Humidity
2004-03-22 09:02:46 51°13.592 2°56.107 6.8 179 7.7 100900 74
2004-03-22 09:02:50 51°13.592 2°56.106 5.2 182 7.7 100900 73
2004-03-22 09:02:55 51°13.592 2°56.106 5.6 185 7.7 100900 73
2004-03-22 09:03:00 51°13.592 2°56.105 4.8 201 7.7 100890 73
2004-03-22 09:03:05 51°13.592 2°56.105 4.9 217 7.7 100890 73
2004-03-22 09:03:10 51°13.592 2°56.105 4.9 199 7.7 100900 72
2004-03-22 09:03:14 51°13.592 2°56.105 5.7 210 7.7 100900 72
2004-03-22 09:03:20 51°13.592 2°56.105 4.3 197 7.7 100900 73
2004-03-22 09:03:26 51°13.591 2°56.105 4.3 194 7.7 100900 73
2004-03-22 09:03:30 51°13.591 2°56.105 3.2 194 7.7 100900 73
2004-03-22 09:03:34 51°13.592 2°56.104 5.8 186 7.7 100900 73
2004-03-22 09:03:40 51°13.592 2°56.102 7 208 7.7 100900 73
2004-03-22 09:03:46 51°13.593 2°56.099 6.5 194 7.7 100900 73
2004-03-22 09:03:50 51°13.593 2°56.096 7.6 206 7.7 100900 73
2004-03-22 09:03:56 51°13.594 2°56.091 8.7 200 7.7 100900 73
2004-03-22 09:04:02 51°13.595 2°56.085 6.7 209 7.7 100900 73
2004-03-22 09:04:06 51°13.596 2°56.082 7.8 201 7.7 100900 73
2004-03-22 09:04:11 51°13.597 2°56.076 6.3 184 7.7 100900 73
2004-03-22 09:04:16 51°13.598 2°56.071 7.7 192 7.7 100900 73
2004-03-22 09:04:20 51°13.599 2°56.067 7.2 208 7.7 100900 73
2004-03-22 09:04:26 51°13.6 2°56.06 8.9 183 7.7 100900 73
2004-03-22 09:04:30 51°13.602 2°56.055 8.6 191 7.6 100900 72
2004-03-22 09:04:36 51°13.604 2°56.048 6 208 7.6 100900 72
2004-03-22 09:04:40 51°13.605 2°56.042 7.7 202 7.7 100900 74
2004-03-22 09:04:46 51°13.607 2°56.035 6.1 192 7.7 100900 74
2004-03-22 09:04:51 51°13.609 2°56.028 4.4 186 7.7 100900 73
2004-03-22 09:04:56 51°13.612 2°56.021 6.9 193 7.7 100900 73
2004-03-22 09:05:01 51°13.614 2°56.013 7.8 186 7.6 100900 73
2004-03-22 09:05:06 51°13.617 2°56.006 6.2 183 7.6 100900 73
2004-03-22 09:05:11 51°13.62 2°55.998 5.3 202 7.7 100900 74
2004-03-22 09:05:16 51°13.623 2°55.991 4.9 186 7.7 100900 74
2004-03-22 09:05:20 51°13.625 2°55.985 6.2 186 7.7 100910 73
2004-03-22 09:05:26 51°13.629 2°55.975 5.1 180 7.7 100910 73
2004-03-22 09:05:30 51°13.631 2°55.969 5.1 181 7.7 100900 73
2004-03-22 09:05:36 51°13.635 2°55.96 8.1 202 7.7 100900 73
2004-03-22 09:05:41 51°13.638 2°55.952 9.5 198 7.7 100900 74
2004-03-22 09:05:46 51°13.641 2°55.944 7.1 196 7.7 100900 74
2004-03-22 09:05:51 51°13.644 2°55.936 7.8 200 7.8 100900 75
2004-03-22 09:05:56 51°13.647 2°55.928 4.7 208 7.8 100900 75
2004-03-22 09:06:00 51°13.649 2°55.922 7 192 7.8 100910 73
2004-03-22 09:06:06 51°13.653 2°55.912 4.4 194 7.8 100910 73
2004-03-22 09:06:10 51°13.655 2°55.905 4.6 196 7.8 100900 72
2004-03-22 09:06:16 51°13.658 2°55.895 4.6 176 7.8 100900 72
2004-03-22 09:06:21 51°13.661 2°55.886 7.8 200 7.8 100900 72
2004-03-22 09:06:26 51°13.664 2°55.876 6.2 188 7.8 100900 72
2004-03-22 09:06:31 51°13.667 2°55.867 7.6 211 7.8 100900 73
2004-03-22 09:06:36 51°13.669 2°55.857 5.5 178 7.8 100900 73
2004-03-22 09:06:41 51°13.672 2°55.848 6.7 199 7.8 100900 73
2004-03-22 09:06:46 51°13.674 2°55.839 9.1 225 7.8 100900 73
2004-03-22 09:06:51 51°13.676 2°55.829 10.5 211 7.9 100900 73
2004-03-22 09:06:56 51°13.678 2°55.821 10 213 7.9 100900 73
2004-03-22 09:07:01 51°13.68 2°55.812 9 213 7.9 100910 73
2004-03-22 09:07:06 51°13.681 2°55.804 8.7 227 7.9 100910 73
2004-03-22 09:07:11 51°13.683 2°55.797 6.6 232 7.9 100900 72
2004-03-22 09:07:16 51°13.684 2°55.79 5.8 214 7.9 100900 72
2004-03-22 09:07:20 51°13.685 2°55.785 6.8 205 7.8 100910 71
2004-03-22 09:07:26 51°13.686 2°55.779 4.9 223 7.8 100910 71
2004-03-22 09:07:30 51°13.686 2°55.775 5 203 7.8 100910 71
2004-03-22 09:07:34 51°13.687 2°55.772 3.8 201 7.8 100910 71
2004-03-22 09:07:40 51°13.687 2°55.768 3.1 206 7.8 100900 72
2004-03-22 09:07:46 51°13.688 2°55.766 5.1 238 7.8 100900 72
2004-03-22 09:07:50 51°13.688 2°55.765 3.4 254 7.8 100910 72
2004-03-22 09:07:56 51°13.689 2°55.765 5.7 244 7.8 100910 72
2004-03-22 09:08:00 51°13.689 2°55.766 5.3 238 7.8 100900 72
2004-03-22 09:08:06 51°13.69 2°55.768 4.2 252 7.8 100900 72
2004-03-22 09:08:10 51°13.691 2°55.77 4.7 267 7.8 100910 72
2004-03-22 09:08:14 51°13.692 2°55.771 6.5 294 7.8 100910 72
2004-03-22 09:08:20 51°13.693 2°55.773 6.9 287 7.8 100910 72
2004-03-22 09:08:26 51°13.693 2°55.772 5.7 270 7.8 100910 72
2004-03-22 09:08:30 51°13.693 2°55.772 6.1 263 7.8 100910 72
2004-03-22 09:08:35 51°13.692 2°55.77 3.7 256 7.8 100910 72
2004-03-22 09:08:40 51°13.691 2°55.767 4.4 261 7.8 100900 72
2004-03-22 09:08:44 51°13.689 2°55.764 4.5 254 7.8 100900 72
2004-03-22 09:08:50 51°13.687 2°55.76 4.3 261 7.8 100900 73
2004-03-22 09:08:56 51°13.684 2°55.756 6.8 241 7.8 100900 73
2004-03-22 09:09:01 51°13.682 2°55.753 6.5 230 7.7 100910 72
2004-03-22 09:09:06 51°13.68 2°55.75 2.4 278 7.7 100910 72
2004-03-22 09:09:10 51°13.68 2°55.749 4.3 306 7.7 100900 73
2004-03-22 09:09:16 51°13.679 2°55.748 4.8 280 7.7 100900 73
2004-03-22 09:09:20 51°13.68 2°55.748 4.4 291 7.8 100910 73
2004-03-22 09:09:26 51°13.682 2°55.748 3.1 284 7.8 100910 73
2004-03-22 09:09:30 51°13.684 2°55.749 4.4 299 7.7 100910 72
2004-03-22 09:09:36 51°13.687 2°55.749 4.1 315 7.7 100910 72
2004-03-22 09:09:40 51°13.69 2°55.748 5.8 324 7.7 100900 73
2004-03-22 09:09:46 51°13.695 2°55.746 5.6 4 7.7 100900 73
2004-03-22 09:09:50 51°13.698 2°55.745 5.2 4 7.7 100900 73
2004-03-22 09:09:56 51°13.702 2°55.741 8.6 14 7.7 100900 73
2004-03-22 09:10:00 51°13.706 2°55.738 7.6   7.7 100900 73
2004-03-22 09:10:06 51°13.711 2°55.733 7.4 349 7.7 100900 73
2004-03-22 09:10:10 51°13.715 2°55.729 7.9 358 7.8 100900 73
2004-03-22 09:10:15 51°13.72 2°55.724 7.6 13 7.8 100900 73
2004-03-22 09:10:20 51°13.726 2°55.719 4.4 345 7.8 100890 73
2004-03-22 09:10:25 51°13.732 2°55.713 6.8 331 7.8 100890 73
2004-03-22 09:10:31 51°13.74 2°55.706 6.5 351 7.8 100900 73
2004-03-22 09:10:35 51°13.745 2°55.702 8.8 346 7.8 100900 73
2004-03-22 09:10:41 51°13.754 2°55.694 6.9 3 7.8 100900 73
2004-03-22 09:10:45 51°13.76 2°55.689 8 15 7.8 100900 73
2004-03-22 09:10:50 51°13.767 2°55.683 4.7 5 7.8 100900 73
2004-03-22 09:10:56 51°13.777 2°55.675 8 1 7.8 100900 73
2004-03-22 09:11:01 51°13.785 2°55.669 7.7 4 7.8 100900 73
2004-03-22 09:11:05 51°13.791 2°55.664 8.2 358 7.8 100900 73
2004-03-22 09:11:11 51°13.801 2°55.656 8.5 2 7.8 100910 73
2004-03-22 09:11:15 51°13.808 2°55.651 8 352 7.8 100910 73
2004-03-22 09:11:21 51°13.819 2°55.643 6.8 3 7.7 100900 73
2004-03-22 09:11:25 51°13.826 2°55.638 7.1 3 7.7 100900 73
2004-03-22 09:11:31 51°13.836 2°55.63 6.4 356 7.7 100910 72
2004-03-22 09:11:36 51°13.845 2°55.623 7.5 354 7.7 100910 72
2004-03-22 09:11:40 51°13.853 2°55.618 6.6 2 7.7 100900 72
2004-03-22 09:11:45 51°13.862 2°55.612 10.2 342 7.7 100900 72
2004-03-22 09:11:51 51°13.873 2°55.604 10.4 338 7.7 100910 72
2004-03-22 09:11:55 51°13.881 2°55.599 7.2 338 7.7 100910 72
2004-03-22 09:12:01 51°13.892 2°55.591 8.1 352 7.7 100910 72
2004-03-22 09:12:05 51°13.899 2°55.586 8.7 343 7.7 100910 72
2004-03-22 09:12:11 51°13.911 2°55.577 8.5 335 7.7 100900 72
2004-03-22 09:12:16 51°13.92 2°55.57 7.1 324 7.7 100900 72
2004-03-22 09:12:21 51°13.93 2°55.563 6.5 338 7.7 100900 72
2004-03-22 09:12:25 51°13.937 2°55.557 6.7 346 7.7 100900 72
2004-03-22 09:12:31 51°13.949 2°55.549 8.2 2 7.7 100900 72
2004-03-22 09:12:35 51°13.956 2°55.543 8 343 7.7 100900 72
2004-03-22 09:12:41 51°13.968 2°55.535 8.4 338 7.6 100900 73
2004-03-22 09:12:45 51°13.975 2°55.529 8.8 353 7.6 100900 73
2004-03-22 09:12:51 51°13.987 2°55.521 7.9 359 7.6 100900 73
2004-03-22 09:12:56 51°13.996 2°55.514 9.1 355 7.6 100900 73
2004-03-22 09:13:01 51°14.006 2°55.507 9.3 343 7.6 100910 72
2004-03-22 09:13:05 51°14.014 2°55.501 8.2 334 7.6 100910 72
2004-03-22 09:13:11 51°14.025 2°55.493 8.5 358 7.6 100910 72
2004-03-22 09:13:15 51°14.033 2°55.488 11.1 349 7.6 100910 72
2004-03-22 09:13:21 51°14.044 2°55.479 10.9 332 7.6 100910 73
2004-03-22 09:13:25 51°14.052 2°55.474 12.7 338 7.6 100910 73
2004-03-22 09:13:31 51°14.064 2°55.466 12.3 340 7.6 100900 73
2004-03-22 09:13:35 51°14.071 2°55.461 11.6 344 7.6 100900 73
2004-03-22 09:13:41 51°14.083 2°55.452 12 340 7.6 100900 73
2004-03-22 09:13:45 51°14.091 2°55.447 10.9 340 7.6 100900 73
2004-03-22 09:13:51 51°14.103 2°55.437 9.4 336 7.6 100900 73
2004-03-22 09:13:56 51°14.113 2°55.429 12.7 341 7.6 100900 73
2004-03-22 09:14:00 51°14.122 2°55.422 12.8 342 7.6 100900 74
2004-03-22 09:14:05 51°14.133 2°55.413 13 343 7.6 100900 74
2004-03-22 09:14:11 51°14.146 2°55.401 13.5 346 7.6 100900 74
2004-03-22 09:14:15 51°14.156 2°55.393 13.9 340 7.6 100900 74
2004-03-22 09:14:21 51°14.169 2°55.38 13.6 347 7.6 100900 75
2004-03-22 09:14:25 51°14.178 2°55.371 13.6 343 7.6 100900 75
2004-03-22 09:14:29 51°14.187 2°55.362 13.2 344 7.6 100900 74
2004-03-22 09:14:36 51°14.202 2°55.344 13.7 338 7.6 100900 74
2004-03-22 09:14:41 51°14.213 2°55.331 13.5 354 7.6 100900 74
2004-03-22 09:14:45 51°14.221 2°55.321 13.3 345 7.6 100900 74
2004-03-22 09:14:51 51°14.234 2°55.304 14.3 343 7.6 100890 74
2004-03-22 09:14:55 51°14.242 2°55.292 13 350 7.6 100890 74
2004-03-22 09:15:01 51°14.255 2°55.273 12.4 350 7.5 100900 74
2004-03-22 09:15:05 51°14.263 2°55.26 13.2 349 7.5 100900 74
2004-03-22 09:15:11 51°14.275 2°55.24 13.1 355 7.5 100900 74
2004-03-22 09:15:16 51°14.285 2°55.222 13 358 7.5 100900 74
2004-03-22 09:15:21 51°14.295 2°55.204 14.4 1 7.5 100900 74
2004-03-22 09:15:25 51°14.302 2°55.19 15.1 359 7.5 100900 74
2004-03-22 09:15:31 51°14.313 2°55.168 15.4 355 7.5 100900 74
2004-03-22 09:15:36 51°14.323 2°55.15 15.5 357 7.5 100900 74
2004-03-22 09:15:41 51°14.332 2°55.131 16.3 356 7.5 100900 74
2004-03-22 09:15:45 51°14.34 2°55.116 15.5 351 7.5 100900 74
2004-03-22 09:15:51 51°14.352 2°55.094 15 346 7.5 100900 75
2004-03-22 09:15:55 51°14.361 2°55.08 14.5 350 7.5 100900 75
2004-03-22 09:16:01 51°14.374 2°55.061 14.6 348 7.5 100900 75
2004-03-22 09:16:05 51°14.383 2°55.047 16.5 347 7.5 100900 75
2004-03-22 09:16:11 51°14.397 2°55.027 16.6 348 7.4 100900 74
2004-03-22 09:16:16 51°14.408 2°55.009 16.5 349 7.4 100900 74
2004-03-22 09:16:21 51°14.419 2°54.991 16.1 351 7.4 100900 74
2004-03-22 09:16:26 51°14.43 2°54.972 15.9 347 7.4 100900 74
2004-03-22 09:16:31 51°14.441 2°54.954 15.3 349 7.4 100900 74
2004-03-22 09:16:36 51°14.452 2°54.935 15.7 344 7.4 100900 74
2004-03-22 09:16:41 51°14.463 2°54.916 15.1 348 7.4 100900 74
2004-03-22 09:16:45 51°14.472 2°54.901 15.9 347 7.4 100900 74
2004-03-22 09:16:51 51°14.486 2°54.878 16 343 7.4 100900 74
2004-03-22 09:16:55 51°14.495 2°54.863 15.7 340 7.4 100900 74
2004-03-22 09:17:01 51°14.508 2°54.841 14.2 342 7.4 100880 75
2004-03-22 09:17:05 51°14.517 2°54.827 14.4 344 7.4 100880 75
2004-03-22 09:17:11 51°14.531 2°54.806 15 342 7.4 100880 75
2004-03-22 09:17:16 51°14.543 2°54.79 14.9 337 7.4 100880 75
2004-03-22 09:17:21 51°14.556 2°54.775 13.8 345 7.4 100900 75
2004-03-22 09:17:25 51°14.566 2°54.764 14.6 341 7.4 100900 75
2004-03-22 09:17:31 51°14.582 2°54.748 14.2 340 7.4 100870 75
2004-03-22 09:17:35 51°14.593 2°54.736 14.2 340 7.4 100870 75
2004-03-22 09:17:41 51°14.609 2°54.72 14.8 336 7.4 100860 76
2004-03-22 09:17:45 51°14.619 2°54.71 15.8 336 7.4 100860 76
2004-03-22 09:17:51 51°14.635 2°54.695 14.5 337 7.4 100870 76
2004-03-22 09:17:55 51°14.646 2°54.685 14.8 335 7.4 100870 76
2004-03-22 09:18:01 51°14.661 2°54.669 14.2 340 7.4 100860 76
2004-03-22 09:18:05 51°14.671 2°54.658 14.9 338 7.4 100860 76
2004-03-22 09:18:11 51°14.685 2°54.64 13.4 339 7.4 100850 76
2004-03-22 09:18:15 51°14.693 2°54.628 13 346 7.4 100850 76
2004-03-22 09:18:21 51°14.703 2°54.611 14.4 347 7.4 100860 75
2004-03-22 09:18:25 51°14.709 2°54.599 13.8 349 7.4 100860 75
2004-03-22 09:18:31 51°14.716 2°54.582 13.8 349 7.4 100910 75
2004-03-22 09:18:36 51°14.721 2°54.569 12.4 355 7.4 100910 75
2004-03-22 09:18:40 51°14.724 2°54.559 12.4 357 7.4 100890 76
2004-03-22 09:18:45 51°14.727 2°54.546 12.1 359 7.4 100890 76
2004-03-22 09:18:51 51°14.73 2°54.533 12.6 359 7.4 100910 76
2004-03-22 09:18:56 51°14.732 2°54.523 10.3 3 7.4 100910 76
2004-03-22 09:19:01 51°14.733 2°54.514 12.7 5 7.4 100900 76
2004-03-22 09:19:05 51°14.733 2°54.508 11.1 10 7.4 100900 76
2004-03-22 09:19:09 51°14.733 2°54.502 12.3 12 7.3 100910 75
2004-03-22 09:19:16 51°14.733 2°54.494 11.1 11 7.3 100910 75
2004-03-22 09:19:21 51°14.733 2°54.488 10.7 7 7.3 100900 75
2004-03-22 09:19:25 51°14.733 2°54.484 11.2 10 7.3 100900 75
2004-03-22 09:19:31 51°14.732 2°54.477 11.6 10 7.3 100900 75
2004-03-22 09:19:35 51°14.732 2°54.474 11.1 14 7.3 100900 75
2004-03-22 09:19:41 51°14.731 2°54.468 11.9 12 7.3 100900 75
2004-03-22 09:19:46 51°14.73 2°54.463 10.7 21 7.3 100900 75
2004-03-22 09:19:51 51°14.729 2°54.458 10.9 16 7.3 100890 75
2004-03-22 09:19:56 51°14.728 2°54.454 10.4 21 7.3 100890 75
2004-03-22 09:20:01 51°14.728 2°54.45 10.4 26 7.2 100900 75
2004-03-22 09:20:05 51°14.727 2°54.446 11.1 22 7.2 100900 75
2004-03-22 09:20:11 51°14.725 2°54.442 11.2 22 7.2 100890 75
2004-03-22 09:20:16 51°14.724 2°54.439 11.3 25 7.2 100890 75
2004-03-22 09:20:21 51°14.723 2°54.435 10.8 27 7.2 100880 75
2004-03-22 09:20:26 51°14.721 2°54.432 10.3 28 7.2 100880 75
2004-03-22 09:20:29 51°14.72 2°54.43 11.1 26 7.2 100890 75
2004-03-22 09:20:35 51°14.719 2°54.427 10.8 28 7.2 100890 75
2004-03-22 09:20:41 51°14.717 2°54.423 10.8 30 7.2 100890 75
2004-03-22 09:20:45 51°14.716 2°54.421 10.4 29 7.2 100890 75
2004-03-22 09:20:51 51°14.714 2°54.418 10 31 7.2 100890 75
2004-03-22 09:20:55 51°14.713 2°54.416 9.6 34 7.2 100890 75
2004-03-22 09:21:01 51°14.711 2°54.414 10.2 34 7.2 100890 75
2004-03-22 09:21:05 51°14.71 2°54.412 9.7 43 7.2 100890 75
2004-03-22 09:21:11 51°14.708 2°54.41 10.5 34 7.1 100890 74
2004-03-22 09:21:15 51°14.707 2°54.409 9.6 38 7.1 100890 74
2004-03-22 09:21:21 51°14.705 2°54.408 9.9 41 7.1 100890 74
2004-03-22 09:21:25 51°14.703 2°54.407 9.2 43 7.1 100890 74
2004-03-22 09:21:31 51°14.701 2°54.406 9.6 47 7.1 100900 75
2004-03-22 09:21:35 51°14.699 2°54.405 10 44 7.1 100900 75
2004-03-22 09:21:39 51°14.698 2°54.405 10.4 47 7.1 100900 75
2004-03-22 09:21:46 51°14.696 2°54.404 8.9 57 7.1 100900 75
2004-03-22 09:21:51 51°14.694 2°54.404 8.8 61 7.1 100890 75
2004-03-22 09:21:55 51°14.693 2°54.404 9.8 59 7.1 100890 75
2004-03-22 09:22:01 51°14.691 2°54.403 9.2 61 7.1 100890 75
2004-03-22 09:22:06 51°14.69 2°54.403 9.4 66 7.1 100890 75
2004-03-22 09:22:11 51°14.689 2°54.403 8.6 68 7.1 100880 76
2004-03-22 09:22:16 51°14.687 2°54.403 8.1 71 7.1 100880 76
2004-03-22 09:22:21 51°14.686 2°54.403 8.9 73 7.1 100890 76
2004-03-22 09:22:25 51°14.685 2°54.403 7.8 81 7.1 100890 76
2004-03-22 09:22:31 51°14.684 2°54.403 8.9 82 7.1 100890 76
2004-03-22 09:22:36 51°14.682 2°54.403 9.2 84 7.1 100890 76
2004-03-22 09:22:41 51°14.681 2°54.403 9 85 7.1 100890 76
2004-03-22 09:22:45 51°14.68 2°54.402 10.2 86 7.1 100890 76
2004-03-22 09:22:51 51°14.679 2°54.402 9.6 89 7 100890 76
2004-03-22 09:22:56 51°14.678 2°54.402 10 84 7 100890 76
2004-03-22 09:23:01 51°14.676 2°54.402 9.8 91 7.1 100890 76
2004-03-22 09:23:05 51°14.675 2°54.401 10.2 93 7.1 100890 76
2004-03-22 09:23:11 51°14.673 2°54.401 9.1 98 7 100900 76
2004-03-22 09:23:15 51°14.673 2°54.401 9 92 7 100900 76
2004-03-22 09:23:21 51°14.671 2°54.4 8.8 93 7 100890 76
2004-03-22 09:23:25 51°14.67 2°54.401 8.3 102 7 100890 76
2004-03-22 09:23:31 51°14.668 2°54.4 8.9 100 7.1 100900 77
2004-03-22 09:23:35 51°14.667 2°54.4 9.1 106 7.1 100900 77
2004-03-22 09:23:41 51°14.666 2°54.399 8.8 103 7.1 100900 77
2004-03-22 09:23:45 51°14.665 2°54.399 8.9 105 7.1 100900 77
2004-03-22 09:23:51 51°14.663 2°54.399 8.9 106 7.1 100910 77
2004-03-22 09:23:55 51°14.662 2°54.398 8.7 109 7.1 100910 77
2004-03-22 09:24:00 51°14.661 2°54.398 9.1 103 7.1 100900 77
2004-03-22 09:24:05 51°14.66 2°54.398 9.3 103 7.1 100900 77
2004-03-22 09:24:11 51°14.658 2°54.397 9.3 104 7.1 100900 77
2004-03-22 09:24:16 51°14.657 2°54.397 8.9 104 7.1 100900 77
2004-03-22 09:24:21 51°14.655 2°54.396 9.6 105 7.1 100900 77
2004-03-22 09:24:25 51°14.654 2°54.396 8.8 110 7.1 100900 77
2004-03-22 09:24:31 51°14.653 2°54.396 9.3 111 7.1 100900 77
2004-03-22 09:24:35 51°14.652 2°54.395 7.8 109 7.1 100900 77
2004-03-22 09:24:40 51°14.65 2°54.395 8.8 108 7.1 100900 77
2004-03-22 09:24:45 51°14.649 2°54.395 7.6 129 7.1 100900 77
2004-03-22 09:24:51 51°14.647 2°54.394 9 112 7.1 100900 77
2004-03-22 09:24:55 51°14.646 2°54.393 8.5 112 7.1 100900 77
2004-03-22 09:25:01 51°14.645 2°54.393 8.7 110 7.1 100900 77
2004-03-22 09:25:06 51°14.643 2°54.393 8.4 113 7.1 100900 77
2004-03-22 09:25:11 51°14.64 2°54.392 8 113 7.1 100910 78
2004-03-22 09:25:16 51°14.636 2°54.392 7.4 118 7.1 100910 78
2004-03-22 09:25:21 51°14.633 2°54.391 8.4 117 7.1 100910 78
2004-03-22 09:25:26 51°14.628 2°54.391 8.3 125 7.1 100910 78
2004-03-22 09:25:31 51°14.624 2°54.392 8.4 133 7.1 100900 78
2004-03-22 09:25:35 51°14.62 2°54.393 6.9 138 7.1 100900 78
2004-03-22 09:25:41 51°14.613 2°54.395 6.8 135 7.1 100900 78
2004-03-22 09:25:45 51°14.61 2°54.398 6 149 7.1 100900 78
2004-03-22 09:25:51 51°14.604 2°54.403 6.1 153 7.1 100910 78
2004-03-22 09:25:56 51°14.599 2°54.409 5.3 158 7.1 100910 78
2004-03-22 09:26:01 51°14.595 2°54.415 6.3 166 7.1 100910 78
2004-03-22 09:26:05 51°14.593 2°54.421 4.8 195 7.1 100910 78
2004-03-22 09:26:11 51°14.59 2°54.43 4.1 209 7.1 100910 78
2004-03-22 09:26:16 51°14.588 2°54.438 7.1 216 7.1 100910 78
2004-03-22 09:26:20 51°14.587 2°54.444 7.2 229 7.1 100910 78
2004-03-22 09:26:27 51°14.587 2°54.456 7.6 241 7.1 100910 78
2004-03-22 09:26:31 51°14.588 2°54.462 8 239 7.2 100920 78
2004-03-22 09:26:36 51°14.59 2°54.47 5.8 255 7.2 100920 78
2004-03-22 09:26:41 51°14.592 2°54.477 5.8 257 7.1 100930 78
2004-03-22 09:26:45 51°14.595 2°54.483 8.4 262 7.1 100930 78
2004-03-22 09:26:51 51°14.599 2°54.489 9.3 269 7.1 100930 77
2004-03-22 09:26:55 51°14.603 2°54.493 7.4 286 7.1 100930 77
2004-03-22 09:27:01 51°14.608 2°54.497 9 289 7.1 100920 77
2004-03-22 09:27:06 51°14.613 2°54.499 10.3 301 7.1 100920 77
2004-03-22 09:27:11 51°14.619 2°54.5 9.8 306 7.1 100910 77
2004-03-22 09:27:16 51°14.625 2°54.499 10.8 309 7.1 100910 77
2004-03-22 09:27:21 51°14.631 2°54.498 10.1 309 7.1 100900 77
2004-03-22 09:27:25 51°14.635 2°54.495 11.5 320 7.1 100900 77
2004-03-22 09:27:31 51°14.642 2°54.489 10.3 328 7.1 100910 77
2004-03-22 09:27:35 51°14.647 2°54.484 11.2 330 7.1 100910 77
2004-03-22 09:27:41 51°14.654 2°54.474 10.7 330 7.1 100910 78
2004-03-22 09:27:45 51°14.66 2°54.466 12.3 334 7.1 100910 78
2004-03-22 09:27:51 51°14.669 2°54.455 12.7 336 7.1 100890 77
2004-03-22 09:27:55 51°14.676 2°54.448 12.7 336 7.1 100890 77
2004-03-22 09:28:01 51°14.688 2°54.437 12.6 332 7.1 100890 77
2004-03-22 09:28:05 51°14.697 2°54.43 12.6 326 7.1 100890 77
2004-03-22 09:28:11 51°14.71 2°54.42 12.8 328 7.2 100890 77
2004-03-22 09:28:15 51°14.72 2°54.414 11.8 328 7.2 100890 77
2004-03-22 09:28:21 51°14.735 2°54.404 13.8 325 7.2 100880 78
2004-03-22 09:28:25 51°14.745 2°54.397 14.6 324 7.2 100880 78
2004-03-22 09:28:31 51°14.762 2°54.389 13.5 323 7.2 100870 77
2004-03-22 09:28:35 51°14.772 2°54.383 14.5 321 7.2 100870 77
2004-03-22 09:28:41 51°14.789 2°54.374 14 326 7.2 100860 77
2004-03-22 09:28:45 51°14.801 2°54.368 15.3 324 7.2 100860 77
2004-03-22 09:28:51 51°14.818 2°54.358 13.9 325 7.2 100870 77
2004-03-22 09:28:55 51°14.83 2°54.352 13.6 325 7.2 100870 77
2004-03-22 09:29:01 51°14.849 2°54.341 14.6 328 7.2 100860 77
2004-03-22 09:29:05 51°14.862 2°54.334 15.9 329 7.2 100860 77
2004-03-22 09:29:11 51°14.88 2°54.32 16 329 7.2 100870 77
2004-03-22 09:29:16 51°14.895 2°54.307 13.1 332 7.2 100870 77
2004-03-22 09:29:21 51°14.91 2°54.294 15 335 7.2 100860 76
2004-03-22 09:29:25 51°14.922 2°54.284 13.7 330 7.2 100860 76
2004-03-22 09:29:31 51°14.94 2°54.266 15.8 336 7.2 100860 76
2004-03-22 09:29:36 51°14.955 2°54.252 15.8 337 7.2 100860 76
2004-03-22 09:29:41 51°14.969 2°54.237 14.2 337 7.2 100850 76
2004-03-22 09:29:45 51°14.981 2°54.225 14.9 339 7.2 100850 76
2004-03-22 09:29:51 51°14.999 2°54.207 14.6 338 7.2 100860 76
2004-03-22 09:29:56 51°15.014 2°54.192 14.6 338 7.2 100860 76
2004-03-22 09:30:01 51°15.029 2°54.176 15.1 339 7.2 100850 76
2004-03-22 09:30:05 51°15.041 2°54.164 16.2 337 7.2 100850 76
2004-03-22 09:30:11 51°15.058 2°54.145 16.6 335 7.2 100870 76
2004-03-22 09:30:15 51°15.071 2°54.133 15.7 337 7.2 100870 76
2004-03-22 09:30:21 51°15.089 2°54.115 15.6 336 7.2 100860 77
2004-03-22 09:30:25 51°15.101 2°54.103 16.2 330 7.2 100860 77
2004-03-22 09:30:31 51°15.12 2°54.086 14.1 333 7.2 100860 77
2004-03-22 09:30:36 51°15.136 2°54.073 14.8 335 7.2 100860 77
2004-03-22 09:30:41 51°15.152 2°54.06 15.3 337 7.2 100860 76
2004-03-22 09:30:45 51°15.164 2°54.049 16.2 329 7.2 100860 76
2004-03-22 09:30:51 51°15.183 2°54.033 15.4 332 7.2 100860 76
2004-03-22 09:30:55 51°15.196 2°54.022 16.6 332 7.2 100860 76
2004-03-22 09:31:01 51°15.215 2°54.006 13.8 337 7.2 100860 76
2004-03-22 09:31:05 51°15.228 2°53.994 16.1 332 7.2 100860 76
2004-03-22 09:31:11 51°15.247 2°53.979 15.4 329 7.2 100860 76
2004-03-22 09:31:16 51°15.263 2°53.965 14.7 329 7.2 100860 76
2004-03-22 09:31:21 51°15.279 2°53.951 14.9 330 7.2 100860 76
2004-03-22 09:31:25 51°15.291 2°53.94 14.6 332 7.2 100860 76
2004-03-22 09:31:31 51°15.31 2°53.924 15.4 337 7.2 100860 76
2004-03-22 09:31:35 51°15.323 2°53.912 15.8 333 7.2 100860 76
2004-03-22 09:31:41 51°15.342 2°53.896 16.2 336 7.2 100860 76
2004-03-22 09:31:45 51°15.355 2°53.885 15.8 338 7.2 100860 76
2004-03-22 09:31:51 51°15.374 2°53.868 15 344 7.2 100850 76
2004-03-22 09:31:56 51°15.39 2°53.855 15.6 339 7.2 100850 76
2004-03-22 09:32:01 51°15.406 2°53.841 14.9 340 7.2 100850 76
2004-03-22 09:32:05 51°15.419 2°53.83 15.2 340 7.2 100850 76
2004-03-22 09:32:11 51°15.438 2°53.813 15.6 336 7.2 100860 76
2004-03-22 09:32:16 51°15.454 2°53.8 16.1 335 7.2 100860 76
2004-03-22 09:32:21 51°15.47 2°53.787 15.9 333 7.2 100860 76
2004-03-22 09:32:25 51°15.482 2°53.775 16 336 7.2 100860 76
2004-03-22 09:32:31 51°15.502 2°53.76 16.3 337 7.2 100860 76
2004-03-22 09:32:35 51°15.514 2°53.748 14.2 335 7.2 100860 76
2004-03-22 09:32:41 51°15.534 2°53.732 16.3 340 7.2 100860 76
2004-03-22 09:32:45 51°15.546 2°53.721 14.7 336 7.2 100860 76
2004-03-22 09:32:51 51°15.565 2°53.705 15.2 338 7.2 100850 76
2004-03-22 09:32:55 51°15.578 2°53.694 15.6 338 7.2 100850 76
2004-03-22 09:33:01 51°15.597 2°53.677 14.5 340 7.2 100850 76
2004-03-22 09:33:05 51°15.61 2°53.666 14.4 333 7.2 100850 76
2004-03-22 09:33:11 51°15.629 2°53.649 16.7 339 7.2 100860 76
2004-03-22 09:33:16 51°15.645 2°53.634 13.6 333 7.2 100860 76
2004-03-22 09:33:21 51°15.66 2°53.62 15.2 338 7.2 100860 76
2004-03-22 09:33:25 51°15.673 2°53.609 15.9 339 7.2 100860 76
2004-03-22 09:33:31 51°15.692 2°53.592 14.6 341 7.2 100870 76
2004-03-22 09:33:35 51°15.705 2°53.581 15.1 342 7.2 100870 76
2004-03-22 09:33:41 51°15.724 2°53.564 14.7 342 7.2 100850 77
2004-03-22 09:33:45 51°15.736 2°53.553 14.8 346 7.2 100850 77
2004-03-22 09:33:51 51°15.755 2°53.537 15.9 339 7.2 100860 76
2004-03-22 09:33:56 51°15.771 2°53.523 14.9 343 7.2 100860 76
2004-03-22 09:34:01 51°15.786 2°53.509 15.5 340 7.2 100870 76
2004-03-22 09:34:05 51°15.799 2°53.497 14.6 343 7.2 100870 76
2004-03-22 09:34:11 51°15.817 2°53.48 15.3 342 7.2 100860 76
2004-03-22 09:34:16 51°15.833 2°53.466 15 345 7.2 100860 76
2004-03-22 09:34:21 51°15.849 2°53.451 16.9 339 7.2 100860 76
2004-03-22 09:34:25 51°15.861 2°53.44 17.3 338 7.2 100860 76
2004-03-22 09:34:31 51°15.88 2°53.423 16.4 340 7.2 100860 76
2004-03-22 09:34:36 51°15.896 2°53.41 16.5 339 7.2 100860 76
2004-03-22 09:34:41 51°15.912 2°53.395 13.8 336 7.2 100860 76
2004-03-22 09:34:45 51°15.924 2°53.385 15.2 338 7.2 100860 76
2004-03-22 09:34:51 51°15.942 2°53.368 15.4 337 7.2 100850 76
2004-03-22 09:34:55 51°15.955 2°53.357 14.7 337 7.2 100850 76
2004-03-22 09:35:01 51°15.974 2°53.341 15.7 337 7.2 100850 76
2004-03-22 09:35:05 51°15.986 2°53.33 15.6 335 7.2 100850 76
2004-03-22 09:35:11 51°16.005 2°53.313 15 337 7.2 100850 76
2004-03-22 09:35:16 51°16.021 2°53.3 14.9 335 7.2 100850 76
2004-03-22 09:35:21 51°16.037 2°53.287 14.5 334 7.2 100860 76
2004-03-22 09:35:25 51°16.049 2°53.277 14.8 334 7.2 100860 76
2004-03-22 09:35:31 51°16.069 2°53.261 13.7 341 7.2 100850 76
2004-03-22 09:35:35 51°16.082 2°53.251 15.7 338 7.2 100850 76
2004-03-22 09:35:41 51°16.101 2°53.237 15.8 333 7.2 100850 76
2004-03-22 09:35:46 51°16.117 2°53.224 16.7 336 7.2 100850 76
2004-03-22 09:35:51 51°16.133 2°53.212 16.2 338 7.1 100860 76
2004-03-22 09:35:56 51°16.149 2°53.2 16.6 337 7.1 100860 76
2004-03-22 09:36:01 51°16.164 2°53.188 16.1 335 7.2 100860 76
2004-03-22 09:36:05 51°16.177 2°53.178 16.1 336 7.2 100860 76
2004-03-22 09:36:11 51°16.197 2°53.163 14.9 338 7.2 100860 76
2004-03-22 09:36:16 51°16.212 2°53.151 15.8 342 7.2 100860 76
2004-03-22 09:36:21 51°16.228 2°53.139 15.7 339 7.1 100850 76
2004-03-22 09:36:25 51°16.241 2°53.129 15.5 337 7.1 100850 76
2004-03-22 09:36:31 51°16.261 2°53.115 15.2 339 7.1 100840 75
2004-03-22 09:36:35 51°16.274 2°53.106 15.8 340 7.1 100840 75
2004-03-22 09:36:41 51°16.293 2°53.091 15.7 342 7.1 100850 75
2004-03-22 09:36:45 51°16.306 2°53.081 15.5 339 7.1 100850 75
2004-03-22 09:36:51 51°16.326 2°53.066 16.9 337 7.1 100860 76
2004-03-22 09:36:55 51°16.338 2°53.057 17.5 335 7.1 100860 76
2004-03-22 09:37:01 51°16.358 2°53.042 14.7 331 7.2 100860 76
2004-03-22 09:37:05 51°16.371 2°53.033 14.2 340 7.2 100860 76
2004-03-22 09:37:11 51°16.39 2°53.02 16 339 7.2 100860 76
2004-03-22 09:37:16 51°16.406 2°53.008 16.5 336 7.2 100860 76
2004-03-22 09:37:21 51°16.422 2°52.996 17 340 7.1 100860 76
2004-03-22 09:37:25 51°16.435 2°52.986 14.9 337 7.1 100860 76
2004-03-22 09:37:31 51°16.454 2°52.972 15.6 337 7.2 100850 76
2004-03-22 09:37:35 51°16.467 2°52.962 15.6 336 7.2 100850 76
2004-03-22 09:37:41 51°16.486 2°52.948 16.8 338 7.2 100850 76
2004-03-22 09:37:45 51°16.499 2°52.939 16.1 338 7.2 100850 76
2004-03-22 09:37:51 51°16.518 2°52.925 15.9 339 7.1 100850 75
2004-03-22 09:37:56 51°16.535 2°52.913 15.1 332 7.1 100850 75
2004-03-22 09:38:01 51°16.55 2°52.902 15.5 334 7.1 100850 76
2004-03-22 09:38:05 51°16.563 2°52.893 15.5 335 7.1 100850 76
2004-03-22 09:38:11 51°16.582 2°52.879 14.8 339 7.1 100860 76
2004-03-22 09:38:16 51°16.598 2°52.868 15.1 334 7.1 100860 76
2004-03-22 09:38:21 51°16.614 2°52.856 16 336 7.1 100860 76
2004-03-22 09:38:25 51°16.626 2°52.847 15.2 335 7.1 100860 76
2004-03-22 09:38:31 51°16.645 2°52.833 15.3 339 7.1 100850 76
2004-03-22 09:38:36 51°16.661 2°52.821 15.4 335 7.1 100850 76
2004-03-22 09:38:41 51°16.676 2°52.809 15.6 336 7.2 100860 76
2004-03-22 09:38:45 51°16.689 2°52.8 15.5 332 7.2 100860 76
2004-03-22 09:38:51 51°16.708 2°52.786 16 335 7.1 100850 76
2004-03-22 09:38:55 51°16.72 2°52.776 15.2 335 7.1 100850 76
2004-03-22 09:39:01 51°16.739 2°52.762 15.6 334 7.2 100850 76
2004-03-22 09:39:05 51°16.752 2°52.752 12.3 334 7.2 100850 76
2004-03-22 09:39:11 51°16.77 2°52.738 13.7 338 7.1 100850 76
2004-03-22 09:39:16 51°16.786 2°52.726 14 338 7.1 100850 76
2004-03-22 09:39:21 51°16.802 2°52.714 13.6 336 7.1 100860 76
2004-03-22 09:39:26 51°16.817 2°52.702 13.5 336 7.1 100860 76
2004-03-22 09:39:31 51°16.833 2°52.69 14.8 337 7.2 100850 76
2004-03-22 09:39:36 51°16.849 2°52.678 15.3 337 7.2 100850 76
2004-03-22 09:39:41 51°16.864 2°52.666 14.7 335 7.2 100860 76
2004-03-22 09:39:45 51°16.877 2°52.656 13.8 337 7.2 100860 76
2004-03-22 09:39:51 51°16.895 2°52.642 14.8 334 7.2 100860 77
2004-03-22 09:39:56 51°16.911 2°52.629 15.1 339 7.2 100860 77
2004-03-22 09:40:01 51°16.927 2°52.617 14.5 339 7.2 100860 77
2004-03-22 09:40:05 51°16.939 2°52.607 14.2 338 7.2 100860 77
2004-03-22 09:40:11 51°16.959 2°52.592 14.5 334 7.2 100850 76
2004-03-22 09:40:15 51°16.971 2°52.583 15.3 337 7.2 100850 76
2004-03-22 09:40:21 51°16.991 2°52.568 12.8 333 7.2 100860 76
2004-03-22 09:40:25 51°17.003 2°52.559 13.6 334 7.2 100860 76
2004-03-22 09:40:31 51°17.022 2°52.545 14.7 336 7.1 100860 76
2004-03-22 09:40:36 51°17.038 2°52.535 14.4 334 7.1 100860 76
2004-03-22 09:40:41 51°17.054 2°52.523 12.3 330 7.1 100860 76
2004-03-22 09:40:45 51°17.066 2°52.514 14.2 332 7.1 100860 76
2004-03-22 09:40:51 51°17.085 2°52.499 14.1 335 7.1 100860 76
2004-03-22 09:40:55 51°17.098 2°52.489 13.9 340 7.1 100860 76
2004-03-22 09:41:01 51°17.116 2°52.474 13.3 339 7.2 100860 76
2004-03-22 09:41:05 51°17.129 2°52.464 13.2 337 7.2 100860 76
2004-03-22 09:41:11 51°17.148 2°52.449 14.4 341 7.2 100860 77
2004-03-22 09:41:16 51°17.163 2°52.437 15.4 339 7.2 100860 77
2004-03-22 09:41:21 51°17.179 2°52.425 14 338 7.2 100870 77
2004-03-22 09:41:25 51°17.192 2°52.416 14.9 337 7.2 100870 77
2004-03-22 09:41:31 51°17.211 2°52.402 15.8 336 7.2 100860 77
2004-03-22 09:41:35 51°17.223 2°52.393 14.1 333 7.2 100860 77
2004-03-22 09:41:41 51°17.242 2°52.379 14.9 338 7.2 100860 77
2004-03-22 09:41:45 51°17.254 2°52.369 14.2 338 7.2 100860 77
2004-03-22 09:41:51 51°17.273 2°52.354 16 339 7.2 100860 77
2004-03-22 09:41:56 51°17.289 2°52.341 15.2 335 7.2 100860 77
2004-03-22 09:42:01 51°17.304 2°52.327 16.6 338 7.2 100860 76
2004-03-22 09:42:06 51°17.319 2°52.312 13.3 340 7.2 100860 76
2004-03-22 09:42:11 51°17.333 2°52.298 16.8 340 7.2 100850 76
2004-03-22 09:42:16 51°17.347 2°52.282 17.4 342 7.2 100850 76
2004-03-22 09:42:21 51°17.362 2°52.266 16.6 338 7.2 100860 76
2004-03-22 09:42:25 51°17.374 2°52.254 14.2 339 7.2 100860 76
2004-03-22 09:42:31 51°17.391 2°52.235 15.9 341 7.2 100850 76
2004-03-22 09:42:35 51°17.403 2°52.222 16 336 7.2 100850 76
2004-03-22 09:42:41 51°17.42 2°52.204 15.9 337 7.2 100860 76
2004-03-22 09:42:46 51°17.435 2°52.188 15.3 335 7.2 100860 76
2004-03-22 09:42:51 51°17.449 2°52.172 15.4 338 7.2 100860 76
2004-03-22 09:42:56 51°17.463 2°52.156 15.8 341 7.2 100860 76
2004-03-22 09:43:01 51°17.478 2°52.14 16.3 338 7.2 100850 76
2004-03-22 09:43:05 51°17.489 2°52.127 16.3 342 7.2 100850 76
2004-03-22 09:43:11 51°17.505 2°52.105 17.3 341 7.1 100850 76
2004-03-22 09:43:16 51°17.519 2°52.088 15.9 342 7.1 100850 76
2004-03-22 09:43:21 51°17.533 2°52.07 17.1 342 7.1 100860 76
2004-03-22 09:43:25 51°17.544 2°52.056 15.8 338 7.1 100860 76
2004-03-22 09:43:31 51°17.561 2°52.035 18.2 340 7.1 100850 76
2004-03-22 09:43:35 51°17.572 2°52.022 13.1 342 7.1 100850 76
2004-03-22 09:43:41 51°17.588 2°52.001 17.2 344 7.1 100850 76
2004-03-22 09:43:45 51°17.599 2°51.987 15.1 343 7.1 100850 76
2004-03-22 09:43:51 51°17.615 2°51.965 14.5 345 7.1 100860 76
2004-03-22 09:43:56 51°17.629 2°51.948 17.1 344 7.1 100860 76
2004-03-22 09:44:01 51°17.643 2°51.93 15.2 345 7.1 100850 76
2004-03-22 09:44:05 51°17.654 2°51.916 16.5 342 7.1 100850 76
2004-03-22 09:44:11 51°17.671 2°51.896 15 340 7.1 100860 76
2004-03-22 09:44:16 51°17.685 2°51.878 16.9 339 7.1 100860 76
2004-03-22 09:44:21 51°17.699 2°51.86 17.1 341 7.1 100860 76
2004-03-22 09:44:25 51°17.71 2°51.846 15.4 344 7.1 100860 76
2004-03-22 09:44:31 51°17.726 2°51.825 16.7 343 7.1 100870 76
2004-03-22 09:44:35 51°17.738 2°51.812 14.8 340 7.1 100870 76
2004-03-22 09:44:41 51°17.754 2°51.792 17.1 337 7.1 100870 76
2004-03-22 09:44:45 51°17.766 2°51.778 15.5 338 7.1 100870 76
2004-03-22 09:44:51 51°17.782 2°51.758 17.8 341 7.1 100860 76
2004-03-22 09:44:56 51°17.796 2°51.741 13.7 341 7.1 100860 76
2004-03-22 09:45:01 51°17.81 2°51.724 16.5 346 7.1 100860 76
2004-03-22 09:45:05 51°17.821 2°51.71 15.9 349 7.1 100860 76
2004-03-22 09:45:11 51°17.838 2°51.689 16.4 340 7.1 100850 76
2004-03-22 09:45:15 51°17.849 2°51.676 17.1 344 7.1 100850 76
2004-03-22 09:45:21 51°17.865 2°51.654 16.2 343 7.1 100860 76
2004-03-22 09:45:25 51°17.875 2°51.639 16.1 346 7.1 100860 76
2004-03-22 09:45:31 51°17.891 2°51.615 15.7 343 7.1 100870 76
2004-03-22 09:45:36 51°17.903 2°51.594 14.7 344 7.1 100870 76
2004-03-22 09:45:41 51°17.915 2°51.573 14.6 349 7.1 100870 76
2004-03-22 09:45:45 51°17.925 2°51.557 16.1 351 7.1 100870 76
2004-03-22 09:45:51 51°17.939 2°51.531 16.8 352 7.1 100860 76
2004-03-22 09:45:55 51°17.949 2°51.515 15.7 348 7.1 100860 76
2004-03-22 09:46:01 51°17.963 2°51.489 16.4 348 7.1 100870 76
2004-03-22 09:46:06 51°17.975 2°51.467 15.8 348 7.1 100870 76
2004-03-22 09:46:11 51°17.988 2°51.447 17.1 349 7.1 100860 77
2004-03-22 09:46:16 51°17.999 2°51.425 16.4 348 7.1 100860 77
2004-03-22 09:46:21 51°18.012 2°51.404 15.4 350 7.1 100870 77
2004-03-22 09:46:25 51°18.022 2°51.386 15.1 345 7.1 100870 77
2004-03-22 09:46:31 51°18.036 2°51.36 15.5 348 7.1 100910 77
2004-03-22 09:46:35 51°18.046 2°51.343 16.5 350 7.1 100910 77
2004-03-22 09:46:41 51°18.061 2°51.318 15.7 350 7.1 100910 77
2004-03-22 09:46:46 51°18.073 2°51.296 14.6 347 7.1 100910 77
2004-03-22 09:46:51 51°18.085 2°51.275 15.2 349 7.1 100910 77
2004-03-22 09:46:55 51°18.095 2°51.258 15.5 346 7.1 100910 77
2004-03-22 09:47:01 51°18.11 2°51.233 16.2 345 7.1 100870 77
2004-03-22 09:47:05 51°18.119 2°51.215 16.3 343 7.1 100870 77
2004-03-22 09:47:11 51°18.134 2°51.19 17.2 345 7.1 100870 77
2004-03-22 09:47:15 51°18.144 2°51.173 16.3 345 7.1 100870 77
2004-03-22 09:47:21 51°18.158 2°51.147 14.1 345 7.1 100870 77
2004-03-22 09:47:25 51°18.168 2°51.13 14.1 343 7.1 100870 77
2004-03-22 09:47:31 51°18.183 2°51.104 17.7 345 7 100870 77
2004-03-22 09:47:36 51°18.195 2°51.083 13.9 341 7 100870 77
2004-03-22 09:47:40 51°18.204 2°51.066 15.4 344 7.1 100860 77
2004-03-22 09:47:45 51°18.216 2°51.044 16.1 346 7.1 100860 77
2004-03-22 09:47:51 51°18.23 2°51.017 14.9 345 7 100860 77
2004-03-22 09:47:55 51°18.24 2°51 13.9 348 7 100860 77
2004-03-22 09:48:01 51°18.255 2°50.973 16.9 346 7.1 100860 77
2004-03-22 09:48:06 51°18.266 2°50.951 15.4 346 7.1 100860 77
2004-03-22 09:48:11 51°18.278 2°50.929 14.9 346 7.1 100870 77
2004-03-22 09:48:15 51°18.288 2°50.911 16.4 352 7.1 100870 77
2004-03-22 09:48:21 51°18.303 2°50.884 13.5 345 7.1 100860 77
2004-03-22 09:48:25 51°18.312 2°50.866 15.5 348 7.1 100860 77
2004-03-22 09:48:31 51°18.327 2°50.84 17 348 7.1 100870 78
2004-03-22 09:48:36 51°18.339 2°50.818 17 347 7.1 100870 78
2004-03-22 09:48:41 51°18.351 2°50.795 16.2 342 7.1 100870 78
2004-03-22 09:48:45 51°18.36 2°50.778 16.6 344 7.1 100870 78
2004-03-22 09:48:51 51°18.375 2°50.751 14.9 347 7.1 100880 78
2004-03-22 09:48:56 51°18.387 2°50.728 15.5 347 7.1 100880 78
2004-03-22 09:49:01 51°18.399 2°50.706 18.2 351 7.1 100860 78
2004-03-22 09:49:06 51°18.411 2°50.683 15.9 349 7.1 100860 78
2004-03-22 09:49:11 51°18.423 2°50.661 17.6 345 7.1 100860 77
2004-03-22 09:49:16 51°18.435 2°50.64 16.8 346 7.1 100860 77
2004-03-22 09:49:20 51°18.444 2°50.624 16.3 347 7.1 100860 77
2004-03-22 09:49:26 51°18.458 2°50.599 17.9 346 7.1 100860 77
2004-03-22 09:49:31 51°18.47 2°50.577 15.9 343 7 100870 77
2004-03-22 09:49:36 51°18.481 2°50.556 16.1 341 7 100870 77
2004-03-22 09:49:41 51°18.493 2°50.534 15.4 345 7 100870 78
2004-03-22 09:49:45 51°18.502 2°50.517 18.9 345 7 100870 78
2004-03-22 09:49:51 51°18.516 2°50.491 17.9 344 7 100870 77
2004-03-22 09:49:56 51°18.528 2°50.47 17.3 344 7 100870 77
2004-03-22 09:50:01 51°18.54 2°50.448 17.3 344 7 100850 77
2004-03-22 09:50:05 51°18.55 2°50.431 15.6 343 7 100850 77
2004-03-22 09:50:11 51°18.564 2°50.405 16.8 344 7 100870 77
2004-03-22 09:50:15 51°18.574 2°50.388 17.8 344 7 100870 77
2004-03-22 09:50:21 51°18.588 2°50.361 16 350 7 100860 77
2004-03-22 09:50:25 51°18.598 2°50.344 17.4 347 7 100860 77
2004-03-22 09:50:31 51°18.612 2°50.317 15.1 346 7 100860 77
2004-03-22 09:50:35 51°18.621 2°50.299 17.1 348 7 100860 77
2004-03-22 09:50:41 51°18.635 2°50.273 16.8 347 7 100860 77
2004-03-22 09:50:45 51°18.644 2°50.255 17.5 346 7 100860 77
2004-03-22 09:50:51 51°18.657 2°50.227 15.9 349 7 100860 77
2004-03-22 09:50:56 51°18.669 2°50.204 17.5 349 7 100860 77
2004-03-22 09:51:01 51°18.68 2°50.18 16.2 346 7 100870 77
2004-03-22 09:51:05 51°18.689 2°50.161 15.2 346 7 100870 77
2004-03-22 09:51:11 51°18.702 2°50.133 16.8 349 7 100870 77
2004-03-22 09:51:15 51°18.711 2°50.114 15.5 350 7 100870 77
2004-03-22 09:51:21 51°18.725 2°50.085 14.8 351 7 100870 77
2004-03-22 09:51:26 51°18.736 2°50.062 16.8 347 7 100870 77
2004-03-22 09:51:31 51°18.748 2°50.038 15.9 349 7 100870 78
2004-03-22 09:51:35 51°18.757 2°50.019 15.5 348 7 100870 78
2004-03-22 09:51:41 51°18.771 2°49.991 15.4 351 7 100870 78
2004-03-22 09:51:45 51°18.78 2°49.972 16.8 349 7 100870 78
2004-03-22 09:51:51 51°18.794 2°49.944 14.7 348 7 100870 78
2004-03-22 09:51:56 51°18.805 2°49.921 14.8 350 7 100870 78
2004-03-22 09:52:01 51°18.816 2°49.898 15.8 349 7 100870 78
2004-03-22 09:52:05 51°18.826 2°49.88 16.6 352 7 100870 78
2004-03-22 09:52:11 51°18.84 2°49.852 15.5 349 7 100870 78
2004-03-22 09:52:15 51°18.849 2°49.834 16.2 349 7 100870 78
2004-03-22 09:52:21 51°18.863 2°49.806 17.4 347 7 100870 78
2004-03-22 09:52:25 51°18.872 2°49.788 16.3 348 7 100870 78
2004-03-22 09:52:31 51°18.886 2°49.76 15.1 347 7 100870 78
2004-03-22 09:52:35 51°18.895 2°49.742 16.3 349 7 100870 78
2004-03-22 09:52:41 51°18.909 2°49.714 15.5 350 7 100870 78
2004-03-22 09:52:45 51°18.919 2°49.696 15.2 350 7 100870 78
2004-03-22 09:52:51 51°18.933 2°49.669 17.1 352 7 100860 78
2004-03-22 09:52:55 51°18.942 2°49.651 16.3 354 7 100860 78
2004-03-22 09:53:00 51°18.954 2°49.628 14.9 354 7 100870 78
2004-03-22 09:53:06 51°18.968 2°49.6 16.1 354 7 100870 78
2004-03-22 09:53:11 51°18.979 2°49.577 15.7 352 7 100870 78
2004-03-22 09:53:15 51°18.989 2°49.558 17.2 350 7 100870 78
2004-03-22 09:53:21 51°19.003 2°49.53 15.2 353 7 100870 78
2004-03-22 09:53:26 51°19.014 2°49.506 15.6 353 7 100870 78
2004-03-22 09:53:31 51°19.026 2°49.483 15.1 352 7 100870 78
2004-03-22 09:53:36 51°19.038 2°49.46 16.5 351 7 100870 78
2004-03-22 09:53:41 51°19.05 2°49.436 15.4 349 7 100870 78
2004-03-22 09:53:45 51°19.059 2°49.418 16.1 353 7 100870 78
2004-03-22 09:53:51 51°19.073 2°49.39 16.7 352 7 100860 78
2004-03-22 09:53:55 51°19.082 2°49.371 16.7 352 7 100860 78
2004-03-22 09:54:00 51°19.093 2°49.346 16.9 354 7 100880 78
2004-03-22 09:54:05 51°19.104 2°49.321 17.3 351 7 100880 78
2004-03-22 09:54:11 51°19.117 2°49.291 16.8 352 7 100860 78
2004-03-22 09:54:15 51°19.126 2°49.271 17.5 349 7 100860 78
2004-03-22 09:54:21 51°19.139 2°49.241 16.2 351 7 100870 78
2004-03-22 09:54:25 51°19.148 2°49.222 17 353 7 100870 78
2004-03-22 09:54:31 51°19.16 2°49.192 14.6 350 6.9 100860 78
2004-03-22 09:54:35 51°19.169 2°49.172 17.2 349 6.9 100860 78
2004-03-22 09:54:41 51°19.181 2°49.143 16.7 352 6.9 100870 78
2004-03-22 09:54:45 51°19.19 2°49.123 15.4 350 6.9 100870 78
2004-03-22 09:54:51 51°19.202 2°49.094 15.9 351 6.9 100860 78
2004-03-22 09:54:56 51°19.213 2°49.07 17.2 348 6.9 100860 78
2004-03-22 09:55:01 51°19.223 2°49.046 17.4 351 6.9 100870 78
2004-03-22 09:55:05 51°19.231 2°49.027 17.1 352 6.9 100870 78
2004-03-22 09:55:11 51°19.244 2°48.998 17.9 348 6.9 100870 78
2004-03-22 09:55:16 51°19.254 2°48.973 15.7 349 6.9 100870 78
2004-03-22 09:55:21 51°19.265 2°48.948 17.5 352 6.9 100870 78
2004-03-22 09:55:25 51°19.273 2°48.929 16.3 347 6.9 100870 78
2004-03-22 09:55:31 51°19.285 2°48.9 18.7 350 6.9 100860 78
2004-03-22 09:55:36 51°19.296 2°48.876 15.3 346 6.9 100860 78
2004-03-22 09:55:41 51°19.306 2°48.852 15.7 348 6.9 100860 78
2004-03-22 09:55:45 51°19.315 2°48.833 14.7 348 6.9 100860 78
2004-03-22 09:55:51 51°19.327 2°48.804 15.2 349 6.9 100860 78
2004-03-22 09:55:56 51°19.338 2°48.779 16.1 349 6.9 100860 78
2004-03-22 09:56:01 51°19.348 2°48.754 17.2 347 6.9 100850 78
2004-03-22 09:56:05 51°19.356 2°48.734 16.7 348 6.9 100850 78
2004-03-22 09:56:11 51°19.368 2°48.705 16.1 349 6.9 100860 78
2004-03-22 09:56:16 51°19.379 2°48.68 15.8 352 6.9 100860 78
2004-03-22 09:56:21 51°19.39 2°48.655 15.3 350 7 100860 78
2004-03-22 09:56:26 51°19.4 2°48.63 15.1 350 7 100860 78
2004-03-22 09:56:31 51°19.41 2°48.606 17.2 353 6.9 100860 78
2004-03-22 09:56:36 51°19.42 2°48.581 17.8 351 6.9 100860 78
2004-03-22 09:56:41 51°19.431 2°48.556 16.4 350 6.9 100850 78
2004-03-22 09:56:45 51°19.439 2°48.536 16.1 351 6.9 100850 78
2004-03-22 09:56:51 51°19.451 2°48.506 17 354 6.9 100870 78
2004-03-22 09:56:55 51°19.459 2°48.486 16.6 350 6.9 100870 78
2004-03-22 09:57:01 51°19.472 2°48.456 17.4 349 6.9 100860 78
2004-03-22 09:57:05 51°19.48 2°48.437 18.1 350 6.9 100860 78
2004-03-22 09:57:11 51°19.492 2°48.407 15.7 349 6.9 100860 78
2004-03-22 09:57:15 51°19.5 2°48.387 16.4 353 6.9 100860 78
2004-03-22 09:57:21 51°19.51 2°48.356 14.6 351 6.9 100860 78
2004-03-22 09:57:27 51°19.52 2°48.324 14.4 352 6.9 100860 78
2004-03-22 09:57:31 51°19.527 2°48.303 16.3 355 6.9 100870 78
2004-03-22 09:57:35 51°19.533 2°48.281 15.9 352 6.9 100870 78
2004-03-22 09:57:40 51°19.541 2°48.253 16.2 352 6.9 100870 77
2004-03-22 09:57:45 51°19.549 2°48.225 15.7 353 6.9 100870 77
2004-03-22 09:57:51 51°19.558 2°48.191 15.8 356 6.9 100860 78
2004-03-22 09:57:55 51°19.564 2°48.167 15.8 355 6.9 100860 78
2004-03-22 09:58:01 51°19.573 2°48.134 16.8 357 6.9 100870 78
2004-03-22 09:58:05 51°19.578 2°48.111 17.7   6.9 100870 78
2004-03-22 09:58:11 51°19.587 2°48.077 16.8 359 6.9 100860 78
2004-03-22 09:58:15 51°19.592 2°48.053 16.3 357 6.9 100860 78
2004-03-22 09:58:21 51°19.6 2°48.018 15.7 5 6.9 100870 78
2004-03-22 09:58:26 51°19.606 2°47.988 14.8 1 6.9 100870 78
2004-03-22 09:58:31 51°19.611 2°47.958 15.2 5 6.9 100870 78
2004-03-22 09:58:36 51°19.617 2°47.928 16.5 1 6.9 100870 78
2004-03-22 09:58:40 51°19.621 2°47.904 15.4 8 6.9 100870 78
2004-03-22 09:58:45 51°19.626 2°47.874 16.1 7 6.9 100870 78
2004-03-22 09:58:51 51°19.63 2°47.837 16.5 4 6.9 100870 78
2004-03-22 09:58:55 51°19.633 2°47.812 15.5 7 6.9 100870 78
2004-03-22 09:59:00 51°19.637 2°47.782 15.9 11 6.9 100870 78
2004-03-22 09:59:05 51°19.64 2°47.75 15.5 10 6.9 100870 78
2004-03-22 09:59:11 51°19.643 2°47.713 15.8 11 6.9 100870 78
2004-03-22 09:59:16 51°19.645 2°47.681 16.5 9 6.9 100870 78
2004-03-22 09:59:21 51°19.648 2°47.65 17.1 8 6.9 100860 78
2004-03-22 09:59:25 51°19.651 2°47.625 15.7 6 6.9 100860 78
2004-03-22 09:59:31 51°19.655 2°47.587 15.2 7 6.9 100870 78
2004-03-22 09:59:35 51°19.658 2°47.562 17.1 7 6.9 100870 78
2004-03-22 09:59:41 51°19.662 2°47.525 16.8 6 6.9 100870 78
2004-03-22 09:59:45 51°19.666 2°47.501 17.3 6 6.9 100870 78
2004-03-22 09:59:51 51°19.67 2°47.463 15.5 4 6.9 100870 78
2004-03-22 09:59:56 51°19.675 2°47.433 16.9 4 6.9 100870 78
2004-03-22 10:00:01 51°19.679 2°47.402 17.8 3 6.9 100880 78
2004-03-22 10:00:05 51°19.683 2°47.378 16.6 6 6.9 100880 78
2004-03-22 10:00:11 51°19.688 2°47.34 16.6 7 6.9 100870 78
2004-03-22 10:00:16 51°19.692 2°47.31 14.8 4 6.9 100870 78
2004-03-22 10:00:21 51°19.696 2°47.278 15.9 3 6.9 100870 78
2004-03-22 10:00:25 51°19.7 2°47.254 14.4 360 6.9 100870 78
2004-03-22 10:00:31 51°19.705 2°47.217 15.4 6 6.9 100870 78
2004-03-22 10:00:35 51°19.708 2°47.192 16.6 3 6.9 100870 78
2004-03-22 10:00:41 51°19.713 2°47.155 15.4 2 6.9 100880 78
2004-03-22 10:00:45 51°19.716 2°47.13 16.4 5 6.9 100880 78
2004-03-22 10:00:51 51°19.721 2°47.094 16.4 4 6.9 100870 78
2004-03-22 10:00:56 51°19.725 2°47.063 15.6 4 6.9 100870 78
2004-03-22 10:01:01 51°19.73 2°47.033 16.5 2 6.9 100870 78
2004-03-22 10:01:05 51°19.733 2°47.008 15.9   6.9 100870 78
2004-03-22 10:01:11 51°19.739 2°46.971 15.5 2 6.9 100870 78
2004-03-22 10:01:15 51°19.742 2°46.947 16.8   6.9 100870 78
2004-03-22 10:01:21 51°19.748 2°46.91 15.6 358 6.9 100870 78
2004-03-22 10:01:26 51°19.752 2°46.88 16.5 3 6.9 100870 78
2004-03-22 10:01:31 51°19.757 2°46.849 16.1 358 6.9 100880 78
2004-03-22 10:01:36 51°19.762 2°46.819 15.4 360 6.9 100880 78
2004-03-22 10:01:41 51°19.767 2°46.788 14.7 1 6.9 100870 78
2004-03-22 10:01:46 51°19.772 2°46.758 16.3 3 6.9 100870 78
2004-03-22 10:01:51 51°19.776 2°46.728 15.9 3 6.9 100880 79
2004-03-22 10:01:56 51°19.78 2°46.697 15.4 9 6.9 100880 79
2004-03-22 10:02:01 51°19.784 2°46.666 18.5 6 6.9 100880 79
2004-03-22 10:02:06 51°19.788 2°46.635 15.8 5 6.9 100880 79
2004-03-22 10:02:11 51°19.792 2°46.605 17.1 4 7 100880 79
2004-03-22 10:02:15 51°19.795 2°46.58 16.8 2 7 100880 79
2004-03-22 10:02:21 51°19.8 2°46.544 17.2 4 6.9 100890 79
2004-03-22 10:02:25 51°19.803 2°46.519 16.1 2 6.9 100890 79
2004-03-22 10:02:31 51°19.808 2°46.483 18.6 6 6.9 100870 79
2004-03-22 10:02:36 51°19.813 2°46.453 16.8 3 6.9 100870 79
2004-03-22 10:02:41 51°19.816 2°46.422 15.6 2 6.9 100880 78
2004-03-22 10:02:45 51°19.82 2°46.398 16.7 3 6.9 100880 78
2004-03-22 10:02:51 51°19.825 2°46.361 17.1 2 6.9 100880 78
2004-03-22 10:02:56 51°19.83 2°46.331 16.9 2 6.9 100880 78
2004-03-22 10:03:01 51°19.833 2°46.301 16.9 3 6.9 100880 79
2004-03-22 10:03:05 51°19.837 2°46.276 18.1 4 6.9 100880 79
2004-03-22 10:03:11 51°19.842 2°46.239 16.8 1 6.9 100880 79
2004-03-22 10:03:16 51°19.846 2°46.209 17.5 7 6.9 100880 79
2004-03-22 10:03:21 51°19.851 2°46.179 16.8 4 6.9 100880 79
2004-03-22 10:03:25 51°19.854 2°46.155 17.1 7 6.9 100880 79
2004-03-22 10:03:31 51°19.858 2°46.118 17.5 7 6.9 100880 79
2004-03-22 10:03:36 51°19.861 2°46.087 18.1 6 6.9 100880 79
2004-03-22 10:03:41 51°19.864 2°46.056 15.8 6 6.9 100880 78
2004-03-22 10:03:45 51°19.866 2°46.032 17.9 6 6.9 100880 78
2004-03-22 10:03:51 51°19.868 2°45.995 16.2 10 6.9 100880 78
2004-03-22 10:03:56 51°19.87 2°45.964 16.3 10 6.9 100880 78
2004-03-22 10:04:01 51°19.871 2°45.933 16 8 6.9 100880 78
2004-03-22 10:04:06 51°19.873 2°45.903 15.2 10 6.9 100880 78
2004-03-22 10:04:11 51°19.874 2°45.871 14.8 11 6.9 100880 78
2004-03-22 10:04:16 51°19.874 2°45.839 15.2 13 6.9 100880 78
2004-03-22 10:04:21 51°19.875 2°45.808 15 11 6.9 100880 79
2004-03-22 10:04:25 51°19.876 2°45.782 15.8 8 6.9 100880 79
2004-03-22 10:04:31 51°19.876 2°45.743 17.6 8 6.9 100890 79
2004-03-22 10:04:36 51°19.877 2°45.711 16.9 11 6.9 100890 79
2004-03-22 10:04:41 51°19.878 2°45.68 16.5 10 6.9 100880 79
2004-03-22 10:04:45 51°19.878 2°45.654 16.2 13 6.9 100880 79
2004-03-22 10:04:51 51°19.879 2°45.616 16.1 9 6.9 100880 79
2004-03-22 10:04:55 51°19.88 2°45.59 16.4 11 6.9 100880 79
2004-03-22 10:05:01 51°19.881 2°45.551 16.2 10 6.9 100880 79
2004-03-22 10:05:05 51°19.882 2°45.525 17.3 10 6.9 100880 79
2004-03-22 10:05:11 51°19.883 2°45.487 18.1 12 6.9 100880 78
2004-03-22 10:05:16 51°19.884 2°45.454 17.2 10 6.9 100880 78
2004-03-22 10:05:21 51°19.885 2°45.422 16.8 10 6.9 100880 79
2004-03-22 10:05:25 51°19.885 2°45.397 19.4 9 6.9 100880 79
2004-03-22 10:05:31 51°19.886 2°45.359 16 12 6.9 100880 79
2004-03-22 10:05:36 51°19.887 2°45.328 18.3 11 6.9 100880 79
2004-03-22 10:05:41 51°19.887 2°45.297 15.7 10 6.9 100880 78
2004-03-22 10:05:45 51°19.888 2°45.272 16.2 12 6.9 100880 78
2004-03-22 10:05:51 51°19.889 2°45.236 16.2 9 6.9 100880 78
2004-03-22 10:05:55 51°19.889 2°45.211 16.4 8 6.9 100880 78
2004-03-22 10:06:01 51°19.89 2°45.174 16.6 10 6.9 100880 78
2004-03-22 10:06:05 51°19.891 2°45.149 16.2 10 6.9 100880 78
2004-03-22 10:06:11 51°19.892 2°45.112 17.2 6 6.9 100890 78
2004-03-22 10:06:16 51°19.893 2°45.081 16.3 7 6.9 100890 78
2004-03-22 10:06:21 51°19.894 2°45.049 15.8 11 6.9 100880 78
2004-03-22 10:06:25 51°19.894 2°45.023 17.3 9 6.9 100880 78
2004-03-22 10:06:31 51°19.896 2°44.985 18.1 12 6.9 100880 78
2004-03-22 10:06:36 51°19.896 2°44.953 17.5 14 6.9 100880 78
2004-03-22 10:06:41 51°19.895 2°44.921 17.4 12 6.9 100880 78
2004-03-22 10:06:45 51°19.895 2°44.896 17.1 14 6.9 100880 78
2004-03-22 10:06:51 51°19.893 2°44.858 15.7 14 6.9 100890 78
2004-03-22 10:06:56 51°19.892 2°44.826 17.2 15 6.9 100890 78
2004-03-22 10:07:01 51°19.89 2°44.795 16.6 17 6.9 100880 78
2004-03-22 10:07:05 51°19.889 2°44.769 15.5 14 6.9 100880 78
2004-03-22 10:07:11 51°19.886 2°44.731 16.6 20 6.9 100880 78
2004-03-22 10:07:16 51°19.885 2°44.699 16.9 19 6.9 100880 78
2004-03-22 10:07:21 51°19.883 2°44.667 16.9 18 6.9 100880 78
2004-03-22 10:07:25 51°19.882 2°44.641 15.4 15 6.9 100880 78
2004-03-22 10:07:31 51°19.88 2°44.603 16.9 18 6.9 100880 78
2004-03-22 10:07:35 51°19.878 2°44.577 16 18 6.9 100880 78
2004-03-22 10:07:41 51°19.876 2°44.539 16.5 16 6.9 100880 78
2004-03-22 10:07:45 51°19.875 2°44.514 16 20 6.9 100880 78
2004-03-22 10:07:51 51°19.872 2°44.476 17.9 17 6.9 100880 78
2004-03-22 10:07:56 51°19.87 2°44.445 17.7 18 6.9 100880 78
2004-03-22 10:08:01 51°19.868 2°44.413 17.3 16 6.9 100880 78
2004-03-22 10:08:05 51°19.867 2°44.388 17.4 18 6.9 100880 78
2004-03-22 10:08:11 51°19.865 2°44.35 17.1 17 6.9 100870 78
2004-03-22 10:08:16 51°19.863 2°44.319 16.9 15 6.9 100870 78
2004-03-22 10:08:21 51°19.861 2°44.287 15.7 20 6.9 100880 78
2004-03-22 10:08:25 51°19.86 2°44.262 17 22 6.9 100880 78
2004-03-22 10:08:31 51°19.859 2°44.224 17.1 23 6.9 100870 78
2004-03-22 10:08:35 51°19.857 2°44.199 18 19 6.9 100870 78
2004-03-22 10:08:41 51°19.855 2°44.161 16.5 20 6.9 100880 78
2004-03-22 10:08:45 51°19.854 2°44.136 17.6 17 6.9 100880 78
2004-03-22 10:08:51 51°19.851 2°44.099 17.6 27 6.9 100880 78
2004-03-22 10:08:55 51°19.849 2°44.075 17.5 25 6.9 100880 78
2004-03-22 10:09:01 51°19.844 2°44.038 15.7 25 6.9 100880 78
2004-03-22 10:09:05 51°19.84 2°44.013 16.7 26 6.9 100880 78
2004-03-22 10:09:11 51°19.834 2°43.976 17.2 27 6.9 100880 78
2004-03-22 10:09:15 51°19.83 2°43.951 16.2 21 6.9 100880 78
2004-03-22 10:09:21 51°19.824 2°43.914 16.6 28 6.9 100880 78
2004-03-22 10:09:25 51°19.819 2°43.89 15.3 27 6.9 100880 78
2004-03-22 10:09:31 51°19.811 2°43.853 15.5 26 6.9 100860 78
2004-03-22 10:09:36 51°19.804 2°43.822 15.4 25 6.9 100860 78
2004-03-22 10:09:41 51°19.797 2°43.792 16 27 6.8 100870 78
2004-03-22 10:09:46 51°19.789 2°43.762 16 20 6.8 100870 78
2004-03-22 10:09:51 51°19.782 2°43.732 13.6 26 6.8 100870 78
2004-03-22 10:09:56 51°19.773 2°43.702 16.4 31 6.8 100870 78
2004-03-22 10:10:01 51°19.764 2°43.674 16.5 29 6.8 100870 78
2004-03-22 10:10:06 51°19.755 2°43.645 15.8 34 6.8 100870 78
2004-03-22 10:10:11 51°19.745 2°43.616 15.4 32 6.9 100880 78
2004-03-22 10:10:15 51°19.737 2°43.593 15.2 33 6.9 100880 78
2004-03-22 10:10:21 51°19.725 2°43.559 15.7 35 6.8 100880 78
2004-03-22 10:10:25 51°19.716 2°43.537 16.3 35 6.8 100880 78
2004-03-22 10:10:31 51°19.704 2°43.502 15.8 35 6.8 100870 78
2004-03-22 10:10:36 51°19.694 2°43.474 15.6 31 6.8 100870 78
2004-03-22 10:10:41 51°19.683 2°43.446 13.9 31 6.8 100880 78
2004-03-22 10:10:46 51°19.672 2°43.418 14.8 32 6.8 100880 78
2004-03-22 10:10:51 51°19.661 2°43.39 16.7 37 6.8 100870 78
2004-03-22 10:10:56 51°19.649 2°43.364 15.6 40 6.8 100870 78
2004-03-22 10:11:01 51°19.636 2°43.338 16.4 38 6.8 100870 78
2004-03-22 10:11:06 51°19.623 2°43.312 15.2 36 6.8 100870 78
2004-03-22 10:11:11 51°19.61 2°43.286 16.6 39 6.8 100870 79
2004-03-22 10:11:16 51°19.596 2°43.261 15.9 39 6.8 100870 79
2004-03-22 10:11:21 51°19.583 2°43.235 16.3 40 6.8 100860 79
2004-03-22 10:11:25 51°19.573 2°43.215 16.3 37 6.8 100860 79
2004-03-22 10:11:31 51°19.556 2°43.184 15.9 38 6.8 100860 78
2004-03-22 10:11:36 51°19.543 2°43.158 14.5 35 6.8 100860 78
2004-03-22 10:11:41 51°19.529 2°43.134 15.4 38 6.8 100860 78
2004-03-22 10:11:45 51°19.519 2°43.113 15.8 34 6.8 100860 78
2004-03-22 10:11:51 51°19.503 2°43.084 15.2 39 6.8 100870 78
2004-03-22 10:11:56 51°19.489 2°43.06 15.9 38 6.8 100870 78
2004-03-22 10:12:01 51°19.476 2°43.033 15.7 38 6.8 100860 78
2004-03-22 10:12:05 51°19.466 2°43.014 15.7 38 6.8 100860 78
2004-03-22 10:12:11 51°19.449 2°42.984 16.2 38 6.8 100870 78
2004-03-22 10:12:16 51°19.437 2°42.958 14.7 38 6.8 100870 78
2004-03-22 10:12:21 51°19.423 2°42.933 14.6 38 6.7 100860 78
2004-03-22 10:12:25 51°19.413 2°42.912 13.4 42 6.7 100860 78
2004-03-22 10:12:31 51°19.397 2°42.882 13.7 40 6.7 100860 78
2004-03-22 10:12:35 51°19.387 2°42.861 14.7 35 6.7 100860 78
2004-03-22 10:12:41 51°19.37 2°42.831 14.4 38 6.7 100870 78
2004-03-22 10:12:46 51°19.358 2°42.805 13.7 36 6.7 100870 78
2004-03-22 10:12:51 51°19.344 2°42.781 15.1 37 6.7 100880 78
2004-03-22 10:12:55 51°19.334 2°42.76 14.5 38 6.7 100880 78
2004-03-22 10:13:01 51°19.318 2°42.73 15.6 32 6.7 100870 78
2004-03-22 10:13:07 51°19.303 2°42.699 14.2 33 6.7 100870 78
2004-03-22 10:13:11 51°19.293 2°42.678 15.8 36 6.8 100880 78
2004-03-22 10:13:15 51°19.282 2°42.658 13.3 38 6.8 100880 78
2004-03-22 10:13:21 51°19.267 2°42.628 15.1 41 6.8 100880 79
2004-03-22 10:13:25 51°19.256 2°42.608 16.1 41 6.8 100880 79
2004-03-22 10:13:31 51°19.241 2°42.577 15.1 37 6.8 100880 78
2004-03-22 10:13:35 51°19.23 2°42.557 14.6 36 6.8 100880 78
2004-03-22 10:13:41 51°19.215 2°42.526 12.9 39 6.8 100870 78
2004-03-22 10:13:45 51°19.204 2°42.506 15.3 32 6.8 100870 78
2004-03-22 10:13:51 51°19.189 2°42.476 12.1 36 6.8 100880 79
2004-03-22 10:13:56 51°19.176 2°42.451 14.2 39 6.8 100880 79
2004-03-22 10:14:01 51°19.163 2°42.425 15.9 34 6.8 100890 79
2004-03-22 10:14:05 51°19.153 2°42.404 15.6 36 6.8 100890 79
2004-03-22 10:14:11 51°19.138 2°42.374 14.8 36 6.8 100880 79
2004-03-22 10:14:16 51°19.125 2°42.348 15.7 36 6.8 100880 79
2004-03-22 10:14:21 51°19.113 2°42.321 16.1 40 6.8 100870 79
2004-03-22 10:14:25 51°19.102 2°42.302 15.4 40 6.8 100870 79
2004-03-22 10:14:31 51°19.086 2°42.27 14.5 38 6.8 100880 78
2004-03-22 10:14:36 51°19.074 2°42.244 14.7 36 6.8 100880 78
2004-03-22 10:14:41 51°19.061 2°42.219 14.3 37 6.8 100880 78
2004-03-22 10:14:45 51°19.049 2°42.198 13.5 38 6.8 100880 78
2004-03-22 10:14:51 51°19.034 2°42.168 14.7 38 6.8 100880 78
2004-03-22 10:14:55 51°19.023 2°42.149 15.1 39 6.8 100880 78
2004-03-22 10:15:00 51°19.011 2°42.122 15.6 40 6.8 100870 78
2004-03-22 10:15:05 51°18.998 2°42.096 14 43 6.8 100870 78
2004-03-22 10:15:11 51°18.983 2°42.066 13.5 39 6.8 100870 79
2004-03-22 10:15:15 51°18.971 2°42.045 14.9 39 6.8 100870 79
2004-03-22 10:15:21 51°18.957 2°42.014 15.2 44 6.8 100880 79
2004-03-22 10:15:27 51°18.94 2°41.985 14.8 34 6.8 100880 79
2004-03-22 10:15:31 51°18.93 2°41.963 14.2 36 6.8 100880 79
2004-03-22 10:15:35 51°18.92 2°41.943 14.4 32 6.8 100880 79
2004-03-22 10:15:41 51°18.904 2°41.912 12.6 36 6.8 100880 79
2004-03-22 10:15:45 51°18.894 2°41.891 15.2 35 6.8 100880 79
2004-03-22 10:15:51 51°18.878 2°41.861 12.6 34 6.8 100880 79
2004-03-22 10:15:56 51°18.866 2°41.837 14.4 38 6.8 100880 79
2004-03-22 10:16:01 51°18.852 2°41.812 14.4 38 6.8 100880 79
2004-03-22 10:16:05 51°18.843 2°41.792 15.3 40 6.8 100880 79
2004-03-22 10:16:11 51°18.827 2°41.761 13.6 32 6.8 100890 79
2004-03-22 10:16:16 51°18.815 2°41.734 14.2 39 6.8 100890 79
2004-03-22 10:16:21 51°18.802 2°41.709 15 37 6.8 100890 79
2004-03-22 10:16:25 51°18.791 2°41.688 13.5 30 6.8 100890 79
2004-03-22 10:16:31 51°18.776 2°41.656 13.3 34 6.8 100880 79
2004-03-22 10:16:35 51°18.766 2°41.636 15.7 29 6.8 100880 79
2004-03-22 10:16:41 51°18.751 2°41.604 15.3 33 6.8 100880 79
2004-03-22 10:16:45 51°18.741 2°41.583 15.1 34 6.8 100880 79
2004-03-22 10:16:51 51°18.726 2°41.552 16.3 38 6.8 100880 79
2004-03-22 10:16:56 51°18.713 2°41.526 14.4 31 6.8 100880 79
2004-03-22 10:17:01 51°18.7 2°41.502 15.9 38 6.8 100900 79
2004-03-22 10:17:05 51°18.69 2°41.481 15.4 39 6.8 100900 79
2004-03-22 10:17:11 51°18.674 2°41.45 17 37 6.8 100880 79
2004-03-22 10:17:16 51°18.662 2°41.425 15.2 35 6.8 100880 79
2004-03-22 10:17:21 51°18.649 2°41.399 14.2 43 6.8 100870 79
2004-03-22 10:17:25 51°18.64 2°41.377 13.4 36 6.8 100870 79
2004-03-22 10:17:31 51°18.624 2°41.347 14.4 39 6.8 100870 79
2004-03-22 10:17:35 51°18.614 2°41.325 13.4 41 6.8 100870 79
2004-03-22 10:17:41 51°18.599 2°41.294 14.9 39 6.8 100880 79
2004-03-22 10:17:45 51°18.589 2°41.272 16.2 39 6.8 100880 79
2004-03-22 10:17:51 51°18.574 2°41.241 14.9 41 6.8 100880 79
2004-03-22 10:17:55 51°18.563 2°41.22 14.1 39 6.8 100880 79
2004-03-22 10:18:01 51°18.549 2°41.189 14 38 6.8 100870 79
2004-03-22 10:18:05 51°18.538 2°41.169 13.7 37 6.8 100870 79
2004-03-22 10:18:11 51°18.523 2°41.137 14.1 39 6.8 100880 79
2004-03-22 10:18:15 51°18.513 2°41.116 14.7 40 6.8 100880 79
2004-03-22 10:18:21 51°18.498 2°41.085 13.4 32 6.8 100880 78
2004-03-22 10:18:25 51°18.487 2°41.065 14.5 42 6.8 100880 78
2004-03-22 10:18:31 51°18.472 2°41.033 15.7 38 6.8 100880 79
2004-03-22 10:18:36 51°18.459 2°41.007 15.3 39 6.8 100880 79
2004-03-22 10:18:41 51°18.447 2°40.98 15.6 34 6.8 100880 79
2004-03-22 10:18:46 51°18.435 2°40.954 14.7 32 6.8 100880 79
2004-03-22 10:18:51 51°18.422 2°40.928 14.8 34 6.8 100880 79
2004-03-22 10:18:56 51°18.409 2°40.902 14.8 33 6.8 100880 79
2004-03-22 10:19:01 51°18.397 2°40.874 14.1 35 6.8 100880 79
2004-03-22 10:19:05 51°18.387 2°40.854 15.6 37 6.8 100880 79
2004-03-22 10:19:11 51°18.372 2°40.823 13.8 39 6.8 100880 79
2004-03-22 10:19:15 51°18.362 2°40.801 14.4 39 6.8 100880 79
2004-03-22 10:19:21 51°18.347 2°40.77 14.9 37 6.8 100880 79
2004-03-22 10:19:25 51°18.337 2°40.748 14.4 39 6.8 100880 79
2004-03-22 10:19:31 51°18.321 2°40.718 13.1 28 6.7 100890 79
2004-03-22 10:19:35 51°18.312 2°40.695 14.6 34 6.7 100890 79
2004-03-22 10:19:41 51°18.296 2°40.665 15.2 35 6.8 100880 79
2004-03-22 10:19:45 51°18.287 2°40.643 16.2 34 6.8 100880 79
2004-03-22 10:19:51 51°18.271 2°40.613 14.4 37 6.7 100880 79
2004-03-22 10:19:56 51°18.258 2°40.587 16.3 36 6.7 100880 79
2004-03-22 10:20:01 51°18.246 2°40.559 15.4 41 6.7 100880 79
2004-03-22 10:20:05 51°18.236 2°40.538 14.1 38 6.7 100880 79
2004-03-22 10:20:11 51°18.221 2°40.507 15 32 6.7 100880 79
2004-03-22 10:20:15 51°18.212 2°40.485 14.5 36 6.7 100880 79
2004-03-22 10:20:21 51°18.196 2°40.454 15.1 36 6.7 100880 79
2004-03-22 10:20:25 51°18.187 2°40.433 14.7 37 6.7 100880 79
2004-03-22 10:20:31 51°18.171 2°40.402 14.6 37 6.7 100870 78
2004-03-22 10:20:35 51°18.162 2°40.38 15 41 6.7 100870 78
2004-03-22 10:20:41 51°18.146 2°40.35 14.1 36 6.7 100890 78
2004-03-22 10:20:45 51°18.137 2°40.328 15.1 38 6.7 100890 78
2004-03-22 10:20:51 51°18.122 2°40.296 14.5 37 6.7 100880 78
2004-03-22 10:20:55 51°18.112 2°40.275 15.3 39 6.7 100880 78
2004-03-22 10:21:01 51°18.097 2°40.243 14.7 39 6.7 100880 78
2004-03-22 10:21:05 51°18.087 2°40.223 14.5 37 6.7 100880 78
2004-03-22 10:21:11 51°18.072 2°40.191 13.8 36 6.7 100880 78
2004-03-22 10:21:15 51°18.062 2°40.172 14.7 36 6.7 100880 78
2004-03-22 10:21:21 51°18.047 2°40.14 14.7 34 6.7 100880 78
2004-03-22 10:21:25 51°18.037 2°40.12 14.7 36 6.7 100880 78
2004-03-22 10:21:31 51°18.022 2°40.089 13.9 37 6.7 100880 78
2004-03-22 10:21:36 51°18.011 2°40.065 14.1 37 6.7 100880 78
2004-03-22 10:21:41 51°18 2°40.041 13.8 33 6.8 100890 79
2004-03-22 10:21:46 51°17.989 2°40.019 14.6 41 6.8 100890 79
2004-03-22 10:21:51 51°17.979 2°39.997 13.7 42 6.8 100890 79
2004-03-22 10:21:56 51°17.969 2°39.977 12.4 35 6.8 100890 79
2004-03-22 10:22:01 51°17.959 2°39.956 13.9 40 6.8 100910 79
2004-03-22 10:22:06 51°17.948 2°39.938 14.5 44 6.8 100910 79
2004-03-22 10:22:11 51°17.939 2°39.918 13.4 50 6.7 100910 79
2004-03-22 10:22:16 51°17.929 2°39.9 13 49 6.7 100910 79
2004-03-22 10:22:21 51°17.919 2°39.882 13.7 48 6.8 100930 78
2004-03-22 10:22:25 51°17.912 2°39.868 11.1 44 6.8 100930 78
2004-03-22 10:22:31 51°17.899 2°39.849 13.1 51 6.7 100940 78
2004-03-22 10:22:36 51°17.889 2°39.832 13.7 47 6.7 100940 78
2004-03-22 10:22:41 51°17.879 2°39.816 13.1 56 6.7 100910 78
2004-03-22 10:22:46 51°17.869 2°39.8 12.3 56 6.7 100910 78
2004-03-22 10:22:51 51°17.859 2°39.785 12.5 57 6.7 100910 78
2004-03-22 10:22:55 51°17.851 2°39.772 12.7 56 6.7 100910 78
2004-03-22 10:23:01 51°17.839 2°39.754 11.7 53 6.7 100920 78
2004-03-22 10:23:05 51°17.831 2°39.742 12.5 53 6.7 100920 78
2004-03-22 10:23:11 51°17.82 2°39.725 12.5 53 6.7 100910 78
2004-03-22 10:23:16 51°17.811 2°39.711 12.3 53 6.7 100910 78
2004-03-22 10:23:21 51°17.803 2°39.698 12.2 51 6.7 100920 78
2004-03-22 10:23:25 51°17.798 2°39.687 12.1 47 6.7 100920 78
2004-03-22 10:23:31 51°17.791 2°39.67 11.5 43 6.7 100920 78
2004-03-22 10:23:36 51°17.787 2°39.657 11.8 35 6.7 100920 78
2004-03-22 10:23:41 51°17.783 2°39.645 12 36 6.7 100920 78
2004-03-22 10:23:46 51°17.78 2°39.633 11.3 32 6.7 100920 78
2004-03-22 10:23:51 51°17.777 2°39.622 11.4 29 6.7 100930 78
2004-03-22 10:23:55 51°17.775 2°39.614 10.8 30 6.7 100930 78
2004-03-22 10:24:01 51°17.772 2°39.602 11.1 29 6.7 100940 78
2004-03-22 10:24:06 51°17.77 2°39.594 10.6 27 6.7 100940 78
2004-03-22 10:24:11 51°17.768 2°39.588 10.5 20 6.7 100940 78
2004-03-22 10:24:16 51°17.767 2°39.582 10.1 16 6.7 100940 78
2004-03-22 10:24:21 51°17.765 2°39.577 10.9 17 6.7 100940 78
2004-03-22 10:24:25 51°17.764 2°39.573 9.2 10 6.7 100940 78
2004-03-22 10:24:31 51°17.763 2°39.569 10 12 6.7 100930 78
2004-03-22 10:24:36 51°17.761 2°39.568 9 4 6.7 100930 78
2004-03-22 10:24:41 51°17.759 2°39.567 8.8 1 6.7 100940 78
2004-03-22 10:24:45 51°17.757 2°39.566 9.6 1 6.7 100940 78
2004-03-22 10:24:51 51°17.755 2°39.565 9.3 6 6.7 100930 78
2004-03-22 10:24:55 51°17.754 2°39.564 9.6 6 6.7 100930 78
2004-03-22 10:25:01 51°17.752 2°39.563 8.7 7 6.7 100930 78
2004-03-22 10:25:06 51°17.75 2°39.563 10 5 6.7 100930 78
2004-03-22 10:25:11 51°17.748 2°39.562 9 6 6.7 100940 78
2004-03-22 10:25:17 51°17.746 2°39.561 9.3 11 6.7 100940 78
2004-03-22 10:25:21 51°17.745 2°39.561 9.9 8 6.8 100930 78
2004-03-22 10:25:27 51°17.743 2°39.561 9 12 6.8 100930 78
2004-03-22 10:25:31 51°17.742 2°39.561 9 8 6.8 100940 78
2004-03-22 10:25:36 51°17.74 2°39.561 9.8 12 6.8 100940 78
2004-03-22 10:25:41 51°17.739 2°39.561 4.4 11 6.8 100930 78
2004-03-22 10:25:46 51°17.737 2°39.561 9 10 6.8 100930 78
2004-03-22 10:25:51 51°17.736 2°39.561 8.3 12 6.8 100940 78
2004-03-22 10:25:56 51°17.734 2°39.561 8 11 6.8 100940 78